Time;durP1;ratioP1;P1;durP2;ratioP2;P2;SDS_P1;SDS_P2;PMS_P1;PMS_P2;Temp;Humidity;BMP_temperature;BMP_pressure;BME280_temperature;BME280_humidity;BME280_pressure;Samples;Min_cycle;Max_cycle;Signal;HPM_P1;HPM_P2
2021/08/02 00:00:27;;;;;;;7.77;1.63;;;18.50;70.80;;;;;;4929059;29;20500;-49
2021/08/02 00:02:57;;;;;;;1.63;1.30;;;18.50;70.70;;;;;;4932357;29;20498;-49
2021/08/02 00:05:28;;;;;;;3.07;1.60;;;18.50;71.10;;;;;;4926596;29;21527;-49
2021/08/02 00:08:00;;;;;;;2.10;1.57;;;18.40;71.40;;;;;;4928380;29;20492;-49
2021/08/02 00:10:32;;;;;;;2.10;1.60;;;18.40;71.50;;;;;;4930012;29;20482;-49
2021/08/02 00:13:09;;;;;;;2.80;1.90;;;18.40;71.60;;;;;;4929705;29;20464;-49
2021/08/02 00:15:37;;;;;;;1.80;1.37;;;18.40;71.80;;;;;;4929126;29;20472;-49
2021/08/02 00:18:04;;;;;;;2.30;1.70;;;18.40;71.60;;;;;;4916005;29;20499;-49
2021/08/02 00:20:33;;;;;;;1.97;1.77;;;18.40;71.50;;;;;;4931459;29;20468;-49
2021/08/02 00:23:04;;;;;;;2.50;1.50;;;18.40;71.30;;;;;;4929554;29;20496;-49
2021/08/02 00:25:32;;;;;;;1.60;1.27;;;18.50;71.00;;;;;;4929032;29;20470;-49
2021/08/02 00:28:01;;;;;;;3.03;1.73;;;18.40;71.00;;;;;;4920095;29;20464;-49
2021/08/02 00:30:28;;;;;;;2.50;1.60;;;18.40;71.30;;;;;;4929134;29;20464;-49
2021/08/02 00:32:55;;;;;;;4.53;1.80;;;18.40;71.20;;;;;;4930273;29;20550;-49
2021/08/02 00:35:22;;;;;;;1.90;1.80;;;18.50;71.10;;;;;;4926292;29;20558;-49
2021/08/02 00:38:09;;;;;;;3.60;1.73;;;18.50;71.00;;;;;;4930359;29;20455;-49
2021/08/02 00:40:48;;;;;;;1.90;1.67;;;18.40;71.10;;;;;;4928929;29;20499;-49
2021/08/02 00:43:44;;;;;;;2.00;1.80;;;18.50;71.20;;;;;;4931944;29;20491;-49
2021/08/02 00:46:13;;;;;;;1.50;1.40;;;18.50;71.00;;;;;;4928302;29;20460;-49
2021/08/02 00:48:53;;;;;;;1.70;1.60;;;18.50;70.90;;;;;;4934215;29;20456;-49
2021/08/02 00:51:21;;;;;;;3.57;1.83;;;18.40;71.00;;;;;;4925705;29;20467;-49
2021/08/02 00:53:57;;;;;;;1.60;1.37;;;18.40;71.20;;;;;;4926577;29;20471;-49
2021/08/02 00:56:24;;;;;;;2.40;1.90;;;18.30;71.30;;;;;;4922240;29;20551;-49
2021/08/02 00:58:51;;;;;;;1.53;1.43;;;18.20;71.60;;;;;;4927357;29;20995;-49
2021/08/02 01:01:19;;;;;;;3.20;1.70;;;18.20;71.80;;;;;;4913496;29;20584;-49
2021/08/02 01:03:46;;;;;;;2.10;1.50;;;18.20;71.90;;;;;;4926673;29;20524;-49
2021/08/02 01:06:15;;;;;;;4.07;1.70;;;18.10;72.10;;;;;;4912104;29;20495;-49
2021/08/02 01:08:47;;;;;;;2.40;1.53;;;18.10;72.20;;;;;;4928153;29;20505;-49
2021/08/02 01:11:16;;;;;;;3.57;1.77;;;18.00;72.00;;;;;;4914234;29;21074;-49
2021/08/02 01:13:43;;;;;;;1.90;1.80;;;18.00;72.00;;;;;;4911042;29;22034;-49
2021/08/02 01:16:10;;;;;;;3.20;2.37;;;18.00;72.30;;;;;;4924730;29;20534;-49
2021/08/02 01:18:39;;;;;;;2.73;2.30;;;18.00;72.40;;;;;;4930461;29;20472;-49
2021/08/02 01:21:08;;;;;;;2.20;1.63;;;17.90;72.40;;;;;;4929246;29;20452;-49
2021/08/02 01:23:37;;;;;;;1.83;1.70;;;17.90;72.60;;;;;;4927048;29;20858;-49
2021/08/02 01:26:03;;;;;;;2.30;1.80;;;17.90;72.60;;;;;;4926378;29;20466;-49
2021/08/02 01:28:30;;;;;;;2.80;1.70;;;17.90;72.60;;;;;;4928510;29;20812;-49
2021/08/02 01:31:00;;;;;;;1.90;1.67;;;17.90;72.70;;;;;;4909425;29;20475;-49
2021/08/02 01:33:29;;;;;;;4.03;1.63;;;17.80;72.80;;;;;;4929186;29;20462;-49
2021/08/02 01:36:01;;;;;;;4.20;1.93;;;17.80;73.00;;;;;;4931382;29;20810;-49
2021/08/02 01:38:30;;;;;;;3.37;2.20;;;17.80;72.90;;;;;;4935199;29;21004;-49
2021/08/02 01:40:56;;;;;;;2.93;1.97;;;17.80;72.90;;;;;;4932640;29;20472;-49
2021/08/02 01:43:24;;;;;;;3.13;1.80;;;17.80;72.80;;;;;;4933891;29;20997;-49
2021/08/02 01:45:53;;;;;;;2.67;2.40;;;17.80;72.80;;;;;;4929490;29;20453;-49
2021/08/02 01:48:28;;;;;;;3.53;2.53;;;17.80;72.80;;;;;;4929375;29;20905;-49
2021/08/02 01:51:21;;;;;;;3.67;2.50;;;17.80;72.90;;;;;;4919361;29;20485;-49
2021/08/02 01:54:16;;;;;;;2.80;2.10;;;17.70;72.90;;;;;;4931835;29;20483;-49
2021/08/02 01:56:52;;;;;;;2.17;1.97;;;17.70;73.00;;;;;;4929443;29;20842;-49
2021/08/02 01:59:22;;;;;;;2.10;1.90;;;17.70;73.00;;;;;;4932134;29;20475;-49
2021/08/02 02:02:05;;;;;;;2.40;2.07;;;17.70;73.10;;;;;;4915252;29;20471;-49
2021/08/02 02:04:44;;;;;;;2.17;1.97;;;17.70;73.30;;;;;;4932587;29;20559;-49
2021/08/02 02:07:12;;;;;;;2.23;1.80;;;17.60;73.50;;;;;;4930760;29;20471;-49
2021/08/02 02:09:40;;;;;;;2.80;1.83;;;17.60;73.70;;;;;;4933640;29;20460;-49
2021/08/02 02:12:10;;;;;;;2.27;2.00;;;17.60;73.90;;;;;;4931194;29;20463;-49
2021/08/02 02:14:41;;;;;;;6.17;2.60;;;17.70;73.90;;;;;;4931073;29;20981;-49
2021/08/02 02:17:09;;;;;;;2.50;2.30;;;17.70;73.80;;;;;;4930927;29;20472;-49
2021/08/02 02:19:39;;;;;;;5.70;2.37;;;17.60;73.90;;;;;;4934898;29;20467;-49
2021/08/02 02:22:07;;;;;;;2.10;2.00;;;17.60;74.20;;;;;;4929689;29;20475;-49
2021/08/02 02:24:36;;;;;;;2.30;2.10;;;17.60;74.10;;;;;;4931847;29;21392;-49
2021/08/02 02:27:06;;;;;;;2.40;2.20;;;17.50;74.00;;;;;;4933938;29;20460;-49
2021/08/02 02:29:34;;;;;;;3.37;2.40;;;17.50;74.20;;;;;;4933035;29;20458;-49
2021/08/02 02:32:04;;;;;;;2.57;2.13;;;17.50;74.40;;;;;;4934239;29;20548;-49
2021/08/02 02:34:34;;;;;;;2.20;2.00;;;17.50;74.50;;;;;;4931651;29;20460;-49
2021/08/02 02:37:03;;;;;;;11.50;3.33;;;17.50;74.60;;;;;;4932892;29;20464;-49
2021/08/02 02:39:30;;;;;;;2.47;2.00;;;17.50;74.60;;;;;;4932586;29;20546;-49
2021/08/02 02:41:58;;;;;;;2.33;1.70;;;17.50;74.50;;;;;;4930859;29;20500;-48
2021/08/02 02:44:26;;;;;;;2.20;2.00;;;17.50;74.40;;;;;;4915190;29;20519;-49
2021/08/02 02:46:54;;;;;;;3.80;2.20;;;17.50;74.50;;;;;;4915934;29;20536;-49
2021/08/02 02:49:22;;;;;;;3.20;2.00;;;17.40;74.60;;;;;;4932538;29;20856;-49
2021/08/02 02:51:49;;;;;;;2.40;1.97;;;17.40;74.60;;;;;;4913341;29;20491;-49
2021/08/02 02:54:19;;;;;;;2.93;2.33;;;17.30;74.60;;;;;;4914037;29;20958;-49
2021/08/02 02:56:45;;;;;;;3.40;2.03;;;17.30;74.60;;;;;;4931665;29;20463;-49
2021/08/02 02:59:12;;;;;;;2.57;2.37;;;17.30;74.80;;;;;;4931325;29;20483;-49
2021/08/02 03:01:44;;;;;;;2.60;1.97;;;17.30;75.10;;;;;;4929835;29;20510;-49
2021/08/02 03:04:12;;;;;;;2.67;2.33;;;17.30;75.00;;;;;;4931517;29;20519;-49
2021/08/02 03:06:42;;;;;;;2.77;2.57;;;17.30;74.90;;;;;;4932436;29;20456;-49
2021/08/02 03:09:10;;;;;;;2.93;2.10;;;17.30;74.90;;;;;;4932281;29;20487;-49
2021/08/02 03:11:38;;;;;;;2.70;2.33;;;17.30;75.00;;;;;;4934451;29;20476;-49
2021/08/02 03:14:05;;;;;;;2.87;1.90;;;17.20;75.10;;;;;;4931634;29;20472;-49
2021/08/02 03:16:32;;;;;;;2.67;2.47;;;17.20;75.20;;;;;;4931750;29;20901;-49
2021/08/02 03:18:59;;;;;;;3.47;2.40;;;17.20;75.50;;;;;;4930150;29;20499;-49
2021/08/02 03:21:27;;;;;;;2.70;2.30;;;17.30;75.40;;;;;;4917811;29;21139;-49
2021/08/02 03:24:26;;;;;;;2.97;2.73;;;17.30;75.00;;;;;;4931595;29;20856;-49
2021/08/02 03:26:59;;;;;;;2.50;2.30;;;17.30;74.90;;;;;;4929574;29;20547;-49
2021/08/02 03:29:48;;;;;;;3.57;2.43;;;17.30;75.00;;;;;;4926033;29;20554;-49
2021/08/02 03:32:17;;;;;;;2.60;2.40;;;17.20;75.20;;;;;;4931764;29;20839;-49
2021/08/02 03:34:51;;;;;;;2.20;1.93;;;17.30;75.10;;;;;;4928757;29;20472;-49
2021/08/02 03:37:21;;;;;;;4.60;2.10;;;17.20;75.00;;;;;;4914539;29;20555;-49
2021/08/02 03:39:49;;;;;;;4.30;2.50;;;17.30;74.90;;;;;;4933142;29;20504;-49
2021/08/02 03:42:17;;;;;;;2.57;2.17;;;17.30;74.60;;;;;;4929487;29;21086;-49
2021/08/02 03:44:48;;;;;;;2.63;2.43;;;17.30;74.60;;;;;;4931203;29;20491;-49
2021/08/02 03:47:15;;;;;;;2.93;2.60;;;17.30;74.70;;;;;;4916991;29;20458;-49
2021/08/02 03:49:42;;;;;;;4.00;2.37;;;17.20;74.80;;;;;;4931903;29;20476;-49
2021/08/02 03:52:12;;;;;;;3.87;1.90;;;17.20;74.80;;;;;;4930206;29;21025;-49
2021/08/02 03:54:39;;;;;;;6.23;2.83;;;17.10;74.90;;;;;;4929259;29;20464;-49
2021/08/02 03:57:06;;;;;;;2.37;2.17;;;17.10;74.90;;;;;;4930344;29;20514;-49
2021/08/02 03:59:33;;;;;;;2.00;1.90;;;17.10;74.90;;;;;;4925363;29;20499;-49
2021/08/02 04:02:00;;;;;;;4.90;2.33;;;17.10;75.10;;;;;;4913606;29;20471;-49
2021/08/02 04:04:27;;;;;;;2.50;2.20;;;17.10;75.30;;;;;;4929314;29;20496;-49
2021/08/02 04:06:56;;;;;;;2.60;2.40;;;17.20;75.00;;;;;;4916352;29;20456;-49
2021/08/02 04:09:23;;;;;;;3.10;2.57;;;17.20;74.70;;;;;;4929090;29;20902;-49
2021/08/02 04:11:51;;;;;;;3.10;2.80;;;17.20;74.60;;;;;;4913967;29;20997;-50
2021/08/02 04:14:18;;;;;;;2.60;1.97;;;17.30;74.70;;;;;;4929209;29;21055;-50
2021/08/02 04:16:45;;;;;;;4.83;2.37;;;17.30;74.50;;;;;;4918370;29;20562;-50
2021/08/02 04:19:12;;;;;;;2.87;2.57;;;17.30;74.60;;;;;;4912179;29;20464;-50
2021/08/02 04:21:38;;;;;;;2.60;2.37;;;17.30;74.70;;;;;;4922879;29;20470;-50
2021/08/02 04:24:06;;;;;;;3.60;2.33;;;17.20;74.80;;;;;;4926602;29;20844;-50
2021/08/02 04:26:33;;;;;;;2.30;2.10;;;17.20;74.90;;;;;;4932675;29;20464;-50
2021/08/02 04:28:59;;;;;;;2.60;2.40;;;17.20;74.90;;;;;;4926207;29;20561;-50
2021/08/02 04:31:29;;;;;;;3.43;3.13;;;17.20;74.80;;;;;;4929575;29;20467;-50
2021/08/02 04:34:01;;;;;;;4.53;2.30;;;17.20;75.00;;;;;;4931632;29;20451;-50
2021/08/02 04:36:27;;;;;;;4.87;2.73;;;17.20;74.80;;;;;;4925912;29;20463;-50
2021/08/02 04:38:54;;;;;;;3.57;2.23;;;17.30;74.60;;;;;;4931294;29;20836;-50
2021/08/02 04:41:21;;;;;;;2.93;2.40;;;17.30;74.40;;;;;;4928651;29;20559;-50
2021/08/02 04:43:48;;;;;;;4.47;2.77;;;17.30;74.50;;;;;;4929003;29;20480;-50
2021/08/02 04:46:15;;;;;;;3.60;2.23;;;17.30;74.30;;;;;;4928498;29;20825;-50
2021/08/02 04:48:42;;;;;;;2.70;2.03;;;17.30;74.20;;;;;;4931424;29;20466;-50
2021/08/02 04:51:11;;;;;;;2.70;2.50;;;17.30;74.20;;;;;;4929366;29;20540;-50
2021/08/02 04:53:38;;;;;;;2.97;2.53;;;17.30;74.20;;;;;;4914179;29;20482;-50
2021/08/02 04:56:05;;;;;;;2.73;2.03;;;17.30;74.20;;;;;;4912990;29;20889;-51
2021/08/02 04:58:32;;;;;;;3.03;2.57;;;17.20;74.40;;;;;;4931043;29;20472;-50
2021/08/02 05:00:58;;;;;;;2.33;2.13;;;17.20;74.60;;;;;;4932612;29;20487;-50
2021/08/02 05:03:25;;;;;;;6.67;2.23;;;17.20;74.70;;;;;;4935318;29;20944;-50
2021/08/02 05:05:54;;;;;;;2.80;2.50;;;17.30;74.50;;;;;;4932562;29;20503;-50
2021/08/02 05:08:21;;;;;;;3.17;2.20;;;17.30;74.50;;;;;;4927033;29;20843;-51
2021/08/02 05:10:48;;;;;;;2.30;2.10;;;17.30;74.40;;;;;;4916836;29;21895;-50
2021/08/02 05:13:15;;;;;;;3.00;1.93;;;17.20;74.50;;;;;;4927562;29;20536;-50
2021/08/02 05:15:42;;;;;;;2.90;2.60;;;17.20;74.80;;;;;;4931555;29;20456;-50
2021/08/02 05:18:10;;;;;;;2.60;2.40;;;17.20;74.80;;;;;;4931700;29;20455;-50
2021/08/02 05:20:37;;;;;;;2.20;2.00;;;17.20;74.90;;;;;;4915726;29;20498;-50
2021/08/02 05:23:04;;;;;;;3.10;2.13;;;17.20;75.20;;;;;;4926875;29;20543;-51
2021/08/02 05:25:31;;;;;;;3.20;1.80;;;17.20;75.50;;;;;;4929974;29;20496;-50
2021/08/02 05:27:58;;;;;;;3.73;3.10;;;17.20;75.30;;;;;;4912327;29;20954;-50
2021/08/02 05:30:25;;;;;;;3.63;2.00;;;17.20;75.30;;;;;;4913604;29;20449;-51
2021/08/02 05:32:52;;;;;;;2.83;1.90;;;17.20;75.30;;;;;;4929640;29;20460;-50
2021/08/02 05:35:19;;;;;;;2.70;2.33;;;17.30;75.30;;;;;;4928901;29;20986;-50
2021/08/02 05:37:46;;;;;;;1.97;1.77;;;17.30;74.80;;;;;;4912219;29;20966;-51
2021/08/02 05:40:13;;;;;;;4.07;2.00;;;17.30;75.00;;;;;;4928029;29;20463;-50
2021/08/02 05:42:40;;;;;;;3.13;2.20;;;17.30;75.00;;;;;;4914714;29;20563;-50
2021/08/02 05:45:08;;;;;;;2.40;1.87;;;17.40;74.80;;;;;;4928718;29;20538;-50
2021/08/02 05:47:35;;;;;;;6.43;2.33;;;17.40;75.00;;;;;;4910720;29;20485;-50
2021/08/02 05:50:03;;;;;;;2.67;2.27;;;17.40;75.00;;;;;;4929476;29;20461;-50
2021/08/02 05:52:30;;;;;;;3.20;2.40;;;17.50;75.20;;;;;;4931091;29;20511;-50
2021/08/02 05:54:57;;;;;;;5.43;4.17;;;17.50;75.10;;;;;;4930725;29;20771;-50
2021/08/02 05:57:24;;;;;;;3.73;2.07;;;17.60;75.00;;;;;;4927213;29;20555;-50
2021/08/02 05:59:51;;;;;;;2.43;2.23;;;17.70;74.50;;;;;;4930367;29;20690;-50
2021/08/02 06:02:18;;;;;;;3.47;1.90;;;17.80;74.20;;;;;;4928084;29;20464;-50
2021/08/02 06:04:46;;;;;;;1.97;1.87;;;17.90;74.00;;;;;;4928942;29;20483;-50
2021/08/02 06:07:13;;;;;;;2.23;1.87;;;18.00;73.80;;;;;;4932499;29;20452;-50
2021/08/02 06:09:40;;;;;;;3.53;2.10;;;18.00;73.30;;;;;;4931140;29;20459;-50
2021/08/02 06:12:07;;;;;;;2.53;1.80;;;18.10;73.20;;;;;;4928459;29;20470;-50
2021/08/02 06:14:33;;;;;;;2.50;2.07;;;18.10;73.20;;;;;;4931592;29;20527;-50
2021/08/02 06:17:00;;;;;;;4.03;1.90;;;18.20;73.10;;;;;;4933037;29;20483;-50
2021/08/02 06:19:27;;;;;;;2.90;2.00;;;18.20;73.00;;;;;;4934599;29;20468;-50
2021/08/02 06:21:54;;;;;;;4.30;2.70;;;18.30;72.70;;;;;;4931738;29;20475;-50
2021/08/02 06:24:21;;;;;;;6.43;3.13;;;18.40;72.60;;;;;;4933504;29;20996;-50
2021/08/02 06:26:47;;;;;;;3.70;2.70;;;18.40;72.50;;;;;;4932755;29;20567;-50
2021/08/02 06:29:14;;;;;;;3.33;2.33;;;18.40;72.60;;;;;;4916468;29;20472;-50
2021/08/02 06:31:41;;;;;;;3.90;2.10;;;18.40;72.70;;;;;;4933066;29;20471;-50
2021/08/02 06:34:09;;;;;;;2.07;1.83;;;18.40;72.80;;;;;;4932777;29;20814;-50
2021/08/02 06:36:38;;;;;;;2.83;1.50;;;18.40;72.80;;;;;;4934058;29;20482;-50
2021/08/02 06:39:05;;;;;;;2.60;2.10;;;18.50;72.70;;;;;;4933156;29;20457;-50
2021/08/02 06:41:32;;;;;;;2.30;1.67;;;18.50;72.80;;;;;;4935105;29;20849;-50
2021/08/02 06:43:58;;;;;;;3.63;1.97;;;18.60;72.60;;;;;;4935898;29;20567;-50
2021/08/02 06:46:25;;;;;;;2.43;1.77;;;18.60;72.60;;;;;;4932249;29;20540;-50
2021/08/02 06:48:52;;;;;;;2.17;1.70;;;18.60;72.20;;;;;;4920081;29;20457;-50
2021/08/02 06:51:19;;;;;;;2.03;1.83;;;18.60;72.10;;;;;;4919248;29;20999;-50
2021/08/02 06:53:46;;;;;;;3.83;1.80;;;18.60;71.90;;;;;;4931001;29;20544;-50
2021/08/02 06:56:12;;;;;;;3.07;2.70;;;18.60;71.70;;;;;;4917213;29;20547;-50
2021/08/02 06:58:39;;;;;;;1.87;1.77;;;18.70;72.00;;;;;;4925373;29;20555;-50
2021/08/02 07:01:08;;;;;;;2.17;1.87;;;18.70;71.90;;;;;;4928980;29;20845;-50
2021/08/02 07:03:36;;;;;;;4.90;2.37;;;18.70;71.60;;;;;;4933838;29;20495;-50
2021/08/02 07:06:03;;;;;;;2.90;2.17;;;18.70;71.50;;;;;;4934065;29;20578;-50
2021/08/02 07:08:29;;;;;;;2.50;1.50;;;18.70;71.50;;;;;;4932965;29;20470;-50
2021/08/02 07:10:56;;;;;;;2.53;1.80;;;18.70;71.10;;;;;;4932559;29;20450;-50
2021/08/02 07:13:23;;;;;;;1.97;1.87;;;18.80;70.90;;;;;;4932138;29;20461;-50
2021/08/02 07:15:50;;;;;;;5.53;1.90;;;18.80;71.20;;;;;;4934184;29;20471;-50
2021/08/02 07:18:20;;;;;;;1.73;1.63;;;18.80;71.70;;;;;;4934150;29;20463;-50
2021/08/02 07:20:48;;;;;;;4.03;2.00;;;18.80;71.70;;;;;;4931887;29;20953;-50
2021/08/02 07:23:16;;;;;;;2.80;2.20;;;18.80;71.40;;;;;;4918420;29;20467;-50
2021/08/02 07:25:43;;;;;;;2.20;1.80;;;18.80;71.40;;;;;;4929566;29;20867;-50
2021/08/02 07:28:10;;;;;;;3.00;2.03;;;18.80;71.50;;;;;;4929058;29;20550;-50
2021/08/02 07:30:36;;;;;;;8.77;1.93;;;18.80;71.50;;;;;;4930987;29;20995;-50
2021/08/02 07:33:03;;;;;;;1.77;1.50;;;18.90;71.50;;;;;;4927829;29;20803;-50
2021/08/02 07:35:30;;;;;;;1.90;1.70;;;18.90;71.30;;;;;;4924338;29;20476;-50
2021/08/02 07:37:57;;;;;;;1.63;1.53;;;18.90;71.50;;;;;;4930722;29;20571;-50
2021/08/02 07:40:24;;;;;;;2.97;1.80;;;19.00;71.50;;;;;;4920049;29;20477;-50
2021/08/02 07:42:51;;;;;;;3.33;2.60;;;19.00;71.50;;;;;;4925088;29;20824;-50
2021/08/02 07:45:18;;;;;;;2.33;2.03;;;19.00;71.80;;;;;;4930894;29;20575;-50
2021/08/02 07:47:45;;;;;;;4.00;2.93;;;19.00;71.70;;;;;;4931290;29;20452;-50
2021/08/02 07:50:15;;;;;;;1.77;1.67;;;19.00;71.80;;;;;;4930544;29;20496;-50
2021/08/02 07:52:43;;;;;;;2.40;2.20;;;19.10;71.60;;;;;;4931691;29;20950;-50
2021/08/02 07:55:12;;;;;;;4.50;2.10;;;19.10;71.40;;;;;;4914128;29;20464;-50
2021/08/02 07:57:39;;;;;;;2.33;1.70;;;19.20;71.20;;;;;;4930840;29;20814;-50
2021/08/02 08:00:08;;;;;;;5.27;1.63;;;19.20;71.20;;;;;;4927592;29;21072;-50
2021/08/02 08:02:35;;;;;;;4.90;2.37;;;19.20;71.40;;;;;;4931116;29;20550;-50
2021/08/02 08:05:02;;;;;;;3.40;2.00;;;19.20;71.30;;;;;;4931814;29;20966;-50
2021/08/02 08:07:39;;;;;;;3.77;2.27;;;19.20;71.50;;;;;;4917942;29;20483;-50
2021/08/02 08:10:06;;;;;;;3.53;2.60;;;19.20;71.80;;;;;;4933268;29;20459;-50
2021/08/02 08:12:33;;;;;;;3.30;1.63;;;19.20;72.20;;;;;;4931284;29;20510;-50
2021/08/02 08:15:00;;;;;;;3.27;1.90;;;19.30;71.30;;;;;;4928970;29;20906;-50
2021/08/02 08:17:27;;;;;;;3.80;1.70;;;19.40;71.70;;;;;;4927888;29;20539;-50
2021/08/02 08:19:53;;;;;;;2.87;2.20;;;19.30;71.80;;;;;;4911601;29;20464;-51
2021/08/02 08:22:21;;;;;;;3.40;2.00;;;19.40;72.40;;;;;;4929602;29;20478;-50
2021/08/02 08:24:49;;;;;;;3.30;1.93;;;19.40;72.70;;;;;;4925833;29;20498;-50
2021/08/02 08:27:16;;;;;;;4.20;2.10;;;19.50;72.30;;;;;;4929017;29;20810;-50
2021/08/02 08:29:43;;;;;;;3.43;1.87;;;19.50;72.60;;;;;;4933692;29;20449;-52
2021/08/02 08:32:10;;;;;;;3.67;2.27;;;19.60;72.80;;;;;;4923676;29;20515;-50
2021/08/02 08:34:37;;;;;;;5.37;1.93;;;19.80;73.00;;;;;;4929051;29;20826;-50
2021/08/02 08:37:04;;;;;;;5.50;2.00;;;20.10;72.30;;;;;;4931068;29;20464;-50
2021/08/02 08:39:31;;;;;;;3.17;1.97;;;20.30;71.20;;;;;;4916612;29;20976;-52
2021/08/02 08:41:58;;;;;;;3.40;2.57;;;20.50;69.70;;;;;;4934410;29;20481;-50
2021/08/02 08:44:27;;;;;;;2.77;2.10;;;20.60;69.50;;;;;;4928379;29;20470;-50
2021/08/02 08:46:53;;;;;;;5.27;1.90;;;20.60;69.20;;;;;;4921969;29;20472;-51
2021/08/02 08:49:20;;;;;;;4.97;2.33;;;20.70;68.70;;;;;;4933183;29;20452;-50
2021/08/02 08:51:47;;;;;;;5.17;2.30;;;20.60;68.60;;;;;;4933593;29;20462;-50
2021/08/02 08:54:14;;;;;;;3.87;3.43;;;20.60;68.60;;;;;;4914766;29;20550;-50
2021/08/02 08:56:41;;;;;;;2.00;1.80;;;20.70;68.80;;;;;;4928992;29;20453;-51
2021/08/02 08:59:13;;;;;;;4.77;2.13;;;20.60;69.00;;;;;;4921561;29;21072;-51
2021/08/02 09:01:40;;;;;;;2.87;2.03;;;20.70;68.90;;;;;;4932034;29;20494;-50
2021/08/02 09:04:08;;;;;;;7.13;2.10;;;20.70;68.00;;;;;;4929583;29;20447;-50
2021/08/02 09:06:48;;;;;;;2.47;2.10;;;20.80;67.40;;;;;;4909237;29;20595;-50
2021/08/02 09:09:35;;;;;;;5.13;2.60;;;20.90;66.60;;;;;;4930686;29;20966;-50
2021/08/02 09:12:03;;;;;;;6.47;2.77;;;20.90;65.90;;;;;;4932568;29;20447;-51
2021/08/02 09:14:31;;;;;;;3.10;2.20;;;20.90;65.90;;;;;;4933452;29;20462;-50
2021/08/02 09:17:00;;;;;;;4.07;2.30;;;20.90;65.90;;;;;;4932149;29;20515;-50
2021/08/02 09:19:42;;;;;;;2.37;2.03;;;20.90;66.20;;;;;;4931018;29;20464;-50
2021/08/02 09:22:09;;;;;;;7.97;2.80;;;21.00;66.40;;;;;;4913361;29;20455;-50
2021/08/02 09:24:36;;;;;;;2.47;1.43;;;21.20;66.10;;;;;;4928617;29;20472;-50
2021/08/02 09:27:03;;;;;;;3.70;2.03;;;21.50;65.50;;;;;;4916285;29;20474;-50
2021/08/02 09:29:32;;;;;;;4.33;1.90;;;21.80;64.60;;;;;;4931078;29;20468;-50
2021/08/02 09:32:00;;;;;;;2.73;1.73;;;22.10;63.90;;;;;;4915866;29;20498;-50
2021/08/02 09:34:27;;;;;;;2.50;1.87;;;22.40;62.90;;;;;;4917700;29;20941;-51
2021/08/02 09:36:56;;;;;;;4.40;2.10;;;22.60;62.30;;;;;;4932521;28;21021;-51
2021/08/02 09:39:32;;;;;;;5.37;2.00;;;22.80;62.10;;;;;;4929376;29;20836;-51
2021/08/02 09:42:04;;;;;;;1.93;1.60;;;22.80;61.70;;;;;;4900788;29;20464;-50
2021/08/02 09:44:31;;;;;;;2.60;1.73;;;22.80;61.40;;;;;;4926908;29;20459;-50
2021/08/02 09:47:06;;;;;;;2.63;1.70;;;22.80;61.20;;;;;;4929334;29;20809;-50
2021/08/02 09:49:45;;;;;;;4.33;1.80;;;22.80;60.90;;;;;;4934493;29;20789;-51
2021/08/02 09:52:13;;;;;;;2.03;1.83;;;22.70;61.10;;;;;;4932772;29;20965;-51
2021/08/02 09:54:41;;;;;;;11.93;2.40;;;22.60;61.20;;;;;;4935638;29;20460;-51
2021/08/02 09:57:08;;;;;;;6.00;1.93;;;22.40;61.80;;;;;;4934319;29;20466;-51
2021/08/02 09:59:40;;;;;;;1.60;1.43;;;22.30;62.10;;;;;;4921004;29;20965;-51
2021/08/02 10:02:07;;;;;;;4.10;1.73;;;22.30;61.60;;;;;;4931528;29;20490;-51
2021/08/02 10:04:35;;;;;;;2.10;1.70;;;22.30;61.50;;;;;;4916910;29;20940;-51
2021/08/02 10:07:07;;;;;;;2.50;2.30;;;22.40;62.00;;;;;;4933005;29;20957;-51
2021/08/02 10:09:37;;;;;;;3.63;1.73;;;22.40;61.50;;;;;;4935764;29;20459;-51
2021/08/02 10:12:04;;;;;;;2.40;1.60;;;22.50;60.70;;;;;;4936298;29;20485;-51
2021/08/02 10:14:32;;;;;;;2.80;1.80;;;22.70;60.10;;;;;;4920869;29;20538;-52
2021/08/02 10:17:07;;;;;;;2.97;2.27;;;22.90;59.70;;;;;;4931348;29;20475;-51
2021/08/02 10:19:54;;;;;;;1.70;1.60;;;22.80;59.90;;;;;;4928764;29;20454;-51
2021/08/02 10:22:20;;;;;;;1.97;1.53;;;22.90;60.60;;;;;;4934232;29;20463;-51
2021/08/02 10:24:49;;;;;;;2.60;1.80;;;23.10;60.30;;;;;;4928250;29;20479;-51
2021/08/02 10:27:30;;;;;;;2.30;1.70;;;23.10;60.30;;;;;;4915550;29;20953;-51
2021/08/02 10:30:18;;;;;;;1.70;1.30;;;23.00;60.00;;;;;;4929469;29;20865;-51
2021/08/02 10:32:57;;;;;;;2.23;1.70;;;22.80;60.70;;;;;;4928380;29;20447;-51
2021/08/02 10:35:45;;;;;;;3.20;1.60;;;22.40;63.80;;;;;;4933840;29;20463;-51
2021/08/02 10:38:17;;;;;;;2.00;1.80;;;22.10;65.70;;;;;;4919105;29;20615;-52
2021/08/02 10:40:51;;;;;;;2.50;2.00;;;21.90;67.40;;;;;;4932987;29;20487;-51
2021/08/02 10:43:37;;;;;;;2.20;2.00;;;21.70;68.50;;;;;;4928412;29;20452;-52
2021/08/02 10:46:22;;;;;;;3.00;1.90;;;21.60;69.40;;;;;;4909377;29;20859;-52
2021/08/02 10:48:52;;;;;;;4.67;2.17;;;21.50;69.90;;;;;;4932613;29;20467;-52
2021/08/02 10:51:21;;;;;;;3.77;2.77;;;21.40;71.20;;;;;;4917518;29;20480;-51
2021/08/02 10:54:00;;;;;;;5.00;2.13;;;21.30;72.00;;;;;;4914513;29;20451;-52
2021/08/02 10:56:32;;;;;;;5.37;3.00;;;21.30;72.50;;;;;;4929042;29;20475;-52
2021/08/02 10:59:02;;;;;;;2.50;2.30;;;21.30;72.70;;;;;;4931122;29;20456;-52
2021/08/02 11:01:29;;;;;;;4.87;1.90;;;21.40;73.20;;;;;;4928975;29;20495;-52
2021/08/02 11:04:09;;;;;;;1.77;1.40;;;21.50;72.00;;;;;;4933064;29;20853;-52
2021/08/02 11:06:36;;;;;;;1.00;0.90;;;21.60;71.40;;;;;;4929096;29;20494;-52
2021/08/02 11:09:03;;;;;;;1.93;1.10;;;21.60;68.40;;;;;;4927913;29;20460;-52
2021/08/02 11:11:43;;;;;;;1.37;1.00;;;21.60;67.50;;;;;;4916779;29;20487;-52
2021/08/02 11:14:20;;;;;;;1.53;0.83;;;21.60;68.40;;;;;;4930624;29;20456;-52
2021/08/02 11:16:49;;;;;;;1.00;0.80;;;21.60;66.60;;;;;;4912502;29;20478;-52
2021/08/02 11:19:25;;;;;;;0.80;0.80;;;21.60;65.70;;;;;;4930777;29;20499;-52
2021/08/02 11:21:57;;;;;;;0.77;0.60;;;21.60;64.90;;;;;;4914653;29;20482;-52
2021/08/02 11:24:30;;;;;;;1.20;0.70;;;21.60;63.80;;;;;;4931498;29;20475;-52
2021/08/02 11:26:59;;;;;;;1.67;0.70;;;21.60;62.90;;;;;;4929760;29;21020;-52
2021/08/02 11:29:28;;;;;;;0.60;0.53;;;21.50;63.60;;;;;;4927520;29;20832;-52
2021/08/02 11:31:59;;;;;;;1.33;0.70;;;21.50;63.30;;;;;;4914293;29;20548;-52
2021/08/02 11:34:28;;;;;;;1.20;0.80;;;21.50;62.70;;;;;;4927669;29;20459;-52
2021/08/02 11:37:01;;;;;;;1.00;0.60;;;21.40;63.40;;;;;;4927571;29;20969;-52
2021/08/02 11:39:30;;;;;;;0.97;0.80;;;21.40;63.90;;;;;;4927014;29;20984;-52
2021/08/02 11:42:00;;;;;;;3.17;1.00;;;21.40;65.00;;;;;;4928727;29;20475;-51
2021/08/02 11:44:28;;;;;;;1.40;0.80;;;21.40;65.90;;;;;;4928560;29;20971;-51
2021/08/02 11:46:55;;;;;;;1.50;1.00;;;21.40;65.10;;;;;;4928237;29;20491;-51
2021/08/02 11:49:23;;;;;;;1.00;0.90;;;21.40;66.10;;;;;;4926351;29;20470;-51
2021/08/02 11:51:50;;;;;;;1.57;0.97;;;21.50;64.90;;;;;;4913141;29;20470;-51
2021/08/02 11:54:21;;;;;;;1.13;0.93;;;21.40;64.90;;;;;;4931060;29;20448;-51
2021/08/02 11:56:49;;;;;;;1.10;1.00;;;21.40;63.40;;;;;;4929601;29;20495;-51
2021/08/02 11:59:27;;;;;;;1.47;1.37;;;21.40;64.00;;;;;;4931339;29;20452;-51
2021/08/02 12:01:56;;;;;;;1.00;1.00;;;21.40;62.30;;;;;;4926108;29;20471;-51
2021/08/02 12:04:24;;;;;;;1.20;1.10;;;21.40;63.50;;;;;;4914212;29;20463;-51
2021/08/02 12:06:58;;;;;;;1.93;1.57;;;21.50;64.20;;;;;;4913364;29;20500;-51
2021/08/02 12:09:33;;;;;;;1.50;1.40;;;21.50;62.70;;;;;;4926430;29;21006;-51
2021/08/02 12:12:05;;;;;;;1.60;1.40;;;21.60;60.30;;;;;;4914377;29;20463;-51
2021/08/02 12:14:33;;;;;;;3.47;1.87;;;21.70;64.20;;;;;;4924754;29;20497;-51
2021/08/02 12:17:01;;;;;;;1.50;1.40;;;21.80;64.00;;;;;;4929933;29;20464;-51
2021/08/02 12:19:28;;;;;;;2.03;1.53;;;21.90;63.40;;;;;;4931690;29;20541;-51
2021/08/02 12:21:56;;;;;;;4.30;1.50;;;22.00;64.10;;;;;;4930470;29;20464;-51
2021/08/02 12:24:23;;;;;;;2.30;1.83;;;22.10;62.80;;;;;;4929888;29;20459;-51
2021/08/02 12:26:52;;;;;;;1.67;1.57;;;22.20;62.60;;;;;;4910529;29;20492;-51
2021/08/02 12:29:24;;;;;;;3.13;1.77;;;22.30;62.40;;;;;;4925777;29;20465;-51
2021/08/02 12:31:59;;;;;;;2.73;1.70;;;22.30;62.60;;;;;;4929996;29;20539;-51
2021/08/02 12:34:27;;;;;;;1.90;1.70;;;22.50;61.70;;;;;;4927931;29;20459;-51
2021/08/02 12:36:55;;;;;;;2.70;1.50;;;22.60;60.90;;;;;;4927173;29;20459;-51
2021/08/02 12:39:24;;;;;;;2.47;1.97;;;22.60;61.00;;;;;;4926249;29;20478;-51
2021/08/02 12:41:51;;;;;;;2.57;2.00;;;22.60;61.60;;;;;;4923960;29;20957;-51
2021/08/02 12:44:24;;;;;;;4.80;1.80;;;22.70;61.60;;;;;;4927828;29;20455;-51
2021/08/02 12:46:51;;;;;;;2.23;2.03;;;22.80;61.00;;;;;;4926214;29;20864;-51
2021/08/02 12:49:18;;;;;;;2.40;2.20;;;22.90;60.40;;;;;;4917303;29;20479;-51
2021/08/02 12:51:45;;;;;;;2.37;2.17;;;23.00;60.80;;;;;;4931162;29;20537;-51
2021/08/02 12:54:11;;;;;;;2.60;2.40;;;23.20;61.50;;;;;;4915657;29;20462;-52
2021/08/02 12:56:38;;;;;;;2.73;2.53;;;23.40;61.50;;;;;;4927795;29;20471;-51
2021/08/02 12:59:05;;;;;;;3.93;3.03;;;23.50;61.40;;;;;;4910796;29;20995;-51